Flight Track Log - Related Links

Times and Time Zones

All times are in EDT time to prevent confusion due to time zone crossing. See the N589H flight status page for this flight to view local times or setup timezone preferences in your user account.

Time Position Orientation Groundspeed Altitude Reporting Facility
EDT Latitude Longitude Course Direction KTS MPH feet Rate Location/Type
Tue 04:21:09 PM 34.4233 -77.8756 26° Northeast 215 247 5,400  Level Washington Center
Tue 04:22:10 PM 34.4803 -77.8394 28° Northeast 220 253 6,800 1,438 Climbing Washington Center
Tue 04:23:10 PM 34.5394 -77.8031 27° Northeast 220 253 8,300 1,576 Climbing Washington Center
Tue 04:24:00 PM 34.6995 -77.6226 29° Northeast  Level FlightAware Approximate
Tue 04:24:08 PM 34.5967 -77.7619 31° Northeast 225 259 9,900  Level Washington Center
Tue 04:25:09 PM 34.6578 -77.7231 28° Northeast 231 266 11,300 1,426 Climbing Washington Center
Tue 04:26:10 PM 34.7211 -77.6867 25° Northeast 236 272 12,800 1,513 Climbing Washington Center
Tue 04:27:08 PM 34.7822 -77.6453 29° Northeast 248 285 14,300 1,513 Climbing Washington Center
Tue 04:28:09 PM 34.8436 -77.5964 33° Northeast 248 285 15,800 1,388 Climbing Washington Center
Tue 04:29:09 PM 34.9028 -77.5522 31° Northeast 253 291 17,100 1,091 Climbing Washington Center
Tue 04:30:10 PM 34.9683 -77.5031 32° Northeast 258 297 18,000 958 Climbing Washington Center
Tue 04:31:08 PM 35.0397 -77.4592 27° Northeast 269 310 19,000 1,068 Climbing Washington Center
Tue 04:32:08 PM 35.1094 -77.4125 29° Northeast 280 322 20,100 1,033 Climbing Washington Center
Tue 04:33:10 PM 35.1811 -77.3633 29° Northeast 286 329 21,100 1,131 Climbing Washington Center
Tue 04:34:10 PM 35.2653 -77.3067 29° Northeast 296 341 22,400 1,160 Climbing Washington Center
Tue 04:35:09 PM 35.3411 -77.2572 28° Northeast 296 341 23,400 1,008 Climbing Washington Center
Tue 04:36:09 PM 35.4169 -77.2078 28° Northeast 301 346 24,400 1,041 Climbing Washington Center
Tue 04:37:10 PM 35.4969 -77.1533 29° Northeast 307 353 25,500 1,059 Climbing Washington Center
Tue 04:38:08 PM 35.5728 -77.1014 29° Northeast 312 359 26,500 1,008 Climbing Washington Center
Tue 04:39:09 PM 35.6506 -77.0489 29° Northeast 312 359 27,500 1,033 Climbing Washington Center
Tue 04:40:10 PM 35.7283 -76.9992 27° Northeast 312 359 28,600 1,059 Climbing Washington Center
Tue 04:41:08 PM 35.8042 -76.9469 29° Northeast 312 359 29,600 1,017 Climbing Washington Center
Tue 04:42:08 PM 35.8819 -76.8944 29° Northeast 312 359 30,600 694 Climbing Washington Center
Tue 04:43:09 PM 35.9597 -76.8417 29° Northeast 312 359 31,000 202 Climbing Washington Center
Tue 04:44:07 PM 36.0436 -76.7839 29° Northeast 323 372 31,000  Level Washington Center
Tue 04:45:08 PM 36.1297 -76.7261 28° Northeast 337 388 31,000  Level Washington Center
Tue 04:46:09 PM 36.2181 -76.6681 28° Northeast 344 396 31,000  Level Washington Center
Tue 04:47:10 PM 36.3103 -76.6025 30° Northeast 356 410 31,000  Level Washington Center
Tue 04:48:10 PM 36.4028 -76.5392 29° Northeast 368 423 31,000  Level Washington Center
Tue 04:49:09 PM 36.4969 -76.4756 28° Northeast 373 429 31,000  Level Washington Center
Tue 04:50:09 PM 36.5892 -76.4144 28° Northeast 373 429 31,000  Level Washington Center
Tue 04:51:10 PM 36.6836 -76.3481 29° Northeast 373 429 31,000  Level Washington Center
Tue 04:52:08 PM 36.7736 -76.2817 31° Northeast 373 429 31,000  Level Washington Center
Tue 04:53:08 PM 36.8594 -76.2228 29° Northeast 379 436 31,000  Level Washington Center
Tue 04:54:10 PM 36.9558 -76.1636 26° Northeast 379 436 31,000  Level Washington Center
Tue 04:55:10 PM 37.0561 -76.1150 21° North 379 436 31,000  Level Washington Center
Tue 04:56:08 PM 37.1586 -76.0636 22° Northeast 379 436 31,000  Level Washington Center
Tue 04:57:09 PM 37.2569 -76.0094 24° Northeast 379 436 31,000  Level Washington Center
Tue 04:58:09 PM 37.3550 -75.9550 24° Northeast 379 436 31,000  Level Washington Center
Tue 04:59:10 PM 37.4553 -75.9031 22° Northeast 379 436 31,000  Level Washington Center
Tue 05:00:10 PM 37.5533 -75.8511 23° Northeast 379 436 31,000  Level Washington Center
Tue 05:01:08 PM 37.6558 -75.8069 19° North 379 436 31,000  Level Washington Center
Tue 05:02:08 PM 37.7433 -75.7178 39° Northeast 379 436 31,000  Level Washington Center
Tue 05:03:09 PM 37.8311 -75.6311 38° Northeast 391 450 31,000  Level Washington Center
Tue 05:04:09 PM 37.9186 -75.5417 39° Northeast 396 456 31,000  Level Washington Center
Tue 05:05:10 PM 38.0061 -75.4575 37° Northeast 396 456 31,000  Level Washington Center
Tue 05:06:08 PM 38.0978 -75.3753 35° Northeast 396 456 31,000  Level Washington Center
Tue 05:07:08 PM 38.1872 -75.2958 35° Northeast 396 456 31,000  Level Washington Center
Tue 05:08:09 PM 38.2831 -75.2186 32° Northeast 396 456 31,000  Level Washington Center
Tue 05:09:10 PM 38.3850 -75.1308 34° Northeast 396 456 31,000  Level Washington Center
Tue 05:10:08 PM 38.4722 -75.0456 37° Northeast 396 456 31,000  Level Washington Center
Tue 05:11:09 PM 38.5592 -74.9492 41° Northeast 403 464 31,000  Level Washington Center
Tue 05:12:10 PM 38.6461 -74.8606 39° Northeast 408 470 31,000  Level Washington Center
Tue 05:13:10 PM 38.7311 -74.7694 40° Northeast 401 461 31,000  Level Washington Center
Tue 05:14:10 PM 38.8200 -74.6778 39° Northeast 401 461 31,000  Level Washington Center
Tue 05:15:08 PM 38.9069 -74.5833 40° Northeast 401 461 31,000  Level Washington Center
Tue 05:16:09 PM 38.9978 -74.4886 39° Northeast 406 467 31,000  Level Washington Center
Tue 05:17:09 PM 39.0822 -74.3964 40° Northeast 406 467 31,000  Level Washington Center
Tue 05:18:10 PM 39.1708 -74.3011 40° Northeast 406 467 31,000  Level Washington Center
Tue 05:19:09 PM 39.2575 -74.2086 40° Northeast 400 460 31,000  Level Washington Center
Tue 05:20:09 PM 39.3458 -74.1128 40° Northeast 400 460 31,000  Level Washington Center
Tue 05:21:10 PM 39.4344 -74.0197 39° Northeast 400 460 31,000  Level Washington Center
Tue 05:22:52 PM 39.5853 -73.8519 41° Northeast 409 471 31,000  Level Boston Center
Tue 05:23:53 PM 39.6736 -73.7569 40° Northeast 413 475 31,000  Level Boston Center
Tue 05:24:55 PM 39.7603 -73.6617 40° Northeast 411 473 31,000  Level Boston Center
Tue 05:25:56 PM 39.8486 -73.5664 40° Northeast 413 475 31,000  Level Boston Center
Tue 05:26:57 PM 39.9372 -73.4692 40° Northeast 416 479 31,000  Level Boston Center
Tue 05:27:59 PM 40.0356 -73.3589 41° Northeast 413 475 31,000  Level Boston Center
Tue 05:29:00 PM 40.1244 -73.2603 40° Northeast 417 480 31,000  Level Boston Center
Tue 05:30:01 PM 40.2003 -73.1778 40° Northeast 415 478 31,000  Level Boston Center
Tue 05:31:02 PM 40.3064 -73.0592 40° Northeast 417 480 31,000 -146 Level Boston Center
Tue 05:32:04 PM 40.3947 -72.9606 40° Northeast 418 481 30,700 -634 Descending Boston Center
Tue 05:33:05 PM 40.4822 -72.8611 41° Northeast 417 480 29,700 -984 Descending Boston Center
Tue 05:34:06 PM 40.5703 -72.7636 40° Northeast 416 479 28,700 -976 Descending Boston Center
Tue 05:35:08 PM 40.6581 -72.6664 40° Northeast 414 476 27,700 -927 Descending Boston Center
Tue 05:36:09 PM 40.7375 -72.5767 41° Northeast 404 465 26,800 -934 Descending Boston Center
Tue 05:37:10 PM 40.8189 -72.4819 41° Northeast 394 453 25,800 -1,082 Descending Boston Center
Tue 05:38:11 PM 40.9150 -72.3728 41° Northeast 382 440 24,600 -1,024 Descending Boston Center
Tue 05:39:13 PM 40.9914 -72.2842 41° Northeast 370 426 23,700 -878 Descending Boston Center
Tue 05:40:14 PM 41.0594 -72.2061 41° Northeast 353 406 22,800 -934 Descending Boston Center
Tue 05:41:15 PM 41.1322 -72.1236 40° Northeast 346 398 21,800 -878 Descending Boston Center
Tue 05:42:17 PM 41.2183 -72.0242 41° Northeast 345 397 21,000 -390 Descending Boston Center
Tue 05:43:18 PM 41.2883 -71.9425 41° Northeast 337 388 21,000  Level Boston Center
Tue 05:44:19 PM 41.3575 -71.8608 42° Northeast 334 384 21,000 -393 Level Boston Center
Tue 05:45:20 PM 41.4303 -71.7819 39° Northeast 336 387 20,200 -878 Descending Boston Center
Tue 05:46:22 PM 41.5072 -71.7178 32° Northeast 328 377 19,200 -1,317 Descending Boston Center
Tue 05:47:23 PM 41.5931 -71.6531 29° Northeast 334 384 17,500 -1,820 Descending Boston Center
Tue 05:48:24 PM 41.6736 -71.5889 31° Northeast 317 365 15,500 -1,951 Descending Boston Center
Tue 05:49:26 PM 41.7344 -71.5169 41° Northeast 301 346 13,500 -2,146 Descending Boston Center
Tue 05:50:27 PM 41.8083 -71.4408 38° Northeast 313 360 11,100 -1,328 Descending Boston Center
Tue 05:51:28 PM 41.8825 -71.3936 25° Northeast 297 342 10,800 -639 Descending Boston Center
Tue 05:52:29 PM 41.9539 -71.3417 28° Northeast 296 341 9,800 -1,073 Descending Boston Center
Tue 05:53:31 PM 42.0225 -71.2703 38° Northeast 290 334 8,600 -1,317 Descending Boston Center
Tue 05:54:32 PM 42.0856 -71.2117 35° Northeast 277 319 7,100 -1,918 Descending Boston Center
Tue 05:55:33 PM 42.1456 -71.1553 35° Northeast 265 305 4,700 -1,927 Descending Boston Center
Tue 05:56:21 PM 42.2000 -71.1167 28° Northeast 252 290 3,600 -1,222 Descending KA90
Tue 05:57:21 PM 42.2500 -71.0667 37° Northeast 215 247 2,500 -1,150 Descending KA90
Tue 05:58:21 PM 42.3000 -71.0500 14° North 187 215 1,300 -1,000 Descending KA90
Tue 05:59:21 PM 42.3333 -71.0167 36° Northeast 133 153 500 -800 Descending KA90
Tue 06:01:00 PM 42.3500 -71.0000 36° Northeast  Level FlightAware Approximate

Login

Don't have an account? Register now (free) for customized features, flight alerts, and more!